sensor_id;sensor_type;location;lat;lon;timestamp;pressure;altitude;pressure_sealevel;temperature;humidity
70217;BME280;57608;0.000;0.000;2022-10-16T00:01:25;100338.44;;;22.25;29.55
70217;BME280;57608;0.000;0.000;2022-10-16T00:03:51;100338.91;;;22.30;29.44
70217;BME280;57608;0.000;0.000;2022-10-16T00:06:19;100338.53;;;22.35;29.64
70217;BME280;57608;0.000;0.000;2022-10-16T00:08:45;100340.84;;;22.39;29.40
70217;BME280;57608;0.000;0.000;2022-10-16T00:11:13;100343.16;;;22.44;29.20
70217;BME280;57608;0.000;0.000;2022-10-16T00:13:41;100349.94;;;22.48;29.42
70217;BME280;57608;0.000;0.000;2022-10-16T00:16:08;100350.53;;;22.52;29.18
70217;BME280;57608;0.000;0.000;2022-10-16T00:18:35;100347.59;;;22.55;29.19
70217;BME280;57608;0.000;0.000;2022-10-16T00:21:07;100342.97;;;22.57;29.03
70217;BME280;57608;0.000;0.000;2022-10-16T00:23:33;100357.91;;;22.59;28.99
70217;BME280;57608;0.000;0.000;2022-10-16T00:26:02;100353.25;;;22.61;28.78
70217;BME280;57608;0.000;0.000;2022-10-16T00:28:28;100356.78;;;22.62;28.94
70217;BME280;57608;0.000;0.000;2022-10-16T00:30:54;100352.44;;;22.61;28.76
70217;BME280;57608;0.000;0.000;2022-10-16T00:33:20;100355.38;;;22.58;28.76
70217;BME280;57608;0.000;0.000;2022-10-16T00:35:45;100345.19;;;22.52;28.89
70217;BME280;57608;0.000;0.000;2022-10-16T00:38:11;100352.72;;;22.47;28.90
70217;BME280;57608;0.000;0.000;2022-10-16T00:40:36;100352.41;;;22.40;28.84
70217;BME280;57608;0.000;0.000;2022-10-16T00:43:02;100355.53;;;22.34;28.87
70217;BME280;57608;0.000;0.000;2022-10-16T00:45:28;100361.25;;;22.29;28.99
70217;BME280;57608;0.000;0.000;2022-10-16T00:47:55;100360.06;;;22.22;29.11
70217;BME280;57608;0.000;0.000;2022-10-16T00:50:22;100353.16;;;22.19;29.27
70217;BME280;57608;0.000;0.000;2022-10-16T00:52:50;100355.22;;;22.16;29.21
70217;BME280;57608;0.000;0.000;2022-10-16T00:55:17;100357.06;;;22.15;29.05
70217;BME280;57608;0.000;0.000;2022-10-16T00:57:43;100357.75;;;22.17;29.35
70217;BME280;57608;0.000;0.000;2022-10-16T01:00:11;100357.75;;;22.17;29.16
70217;BME280;57608;0.000;0.000;2022-10-16T01:02:37;100362.00;;;22.20;29.10
70217;BME280;57608;0.000;0.000;2022-10-16T01:05:03;100358.50;;;22.19;29.25
70217;BME280;57608;0.000;0.000;2022-10-16T01:13:00;100376.22;;;22.09;29.26
70217;BME280;57608;0.000;0.000;2022-10-16T01:18:14;100367.38;;;21.97;29.45
70217;BME280;57608;0.000;0.000;2022-10-16T01:20:59;100368.63;;;21.93;29.71
70217;BME280;57608;0.000;0.000;2022-10-16T01:23:48;100374.19;;;21.90;29.44
70217;BME280;57608;0.000;0.000;2022-10-16T01:29:32;100370.81;;;21.88;29.78
70217;BME280;57608;0.000;0.000;2022-10-16T01:32:11;100372.38;;;21.90;29.91
70217;BME280;57608;0.000;0.000;2022-10-16T01:34:52;100376.34;;;21.96;29.63
70217;BME280;57608;0.000;0.000;2022-10-16T01:37:40;100377.81;;;22.00;29.60
70217;BME280;57608;0.000;0.000;2022-10-16T01:40:12;100380.94;;;22.05;29.54
70217;BME280;57608;0.000;0.000;2022-10-16T01:42:46;100388.47;;;22.11;29.59
70217;BME280;57608;0.000;0.000;2022-10-16T01:45:14;100381.91;;;22.16;29.48
70217;BME280;57608;0.000;0.000;2022-10-16T01:47:44;100377.78;;;22.23;29.51
70217;BME280;57608;0.000;0.000;2022-10-16T01:50:11;100386.38;;;22.26;29.26
70217;BME280;57608;0.000;0.000;2022-10-16T01:52:41;100385.03;;;22.32;29.17
70217;BME280;57608;0.000;0.000;2022-10-16T01:55:10;100383.81;;;22.36;29.30
70217;BME280;57608;0.000;0.000;2022-10-16T01:57:41;100382.59;;;22.40;29.30
70217;BME280;57608;0.000;0.000;2022-10-16T02:00:12;100386.59;;;22.46;29.10
70217;BME280;57608;0.000;0.000;2022-10-16T02:02:42;100386.34;;;22.49;28.98
70217;BME280;57608;0.000;0.000;2022-10-16T02:05:21;100389.63;;;22.53;28.97
70217;BME280;57608;0.000;0.000;2022-10-16T02:07:49;100386.69;;;22.56;28.91
70217;BME280;57608;0.000;0.000;2022-10-16T02:10:17;100387.28;;;22.59;28.91
70217;BME280;57608;0.000;0.000;2022-10-16T02:12:49;100386.31;;;22.60;28.82
70217;BME280;57608;0.000;0.000;2022-10-16T02:15:16;100379.88;;;22.63;28.82
70217;BME280;57608;0.000;0.000;2022-10-16T02:17:41;100388.34;;;22.68;28.79
70217;BME280;57608;0.000;0.000;2022-10-16T02:20:07;100387.34;;;22.69;28.95
70217;BME280;57608;0.000;0.000;2022-10-16T02:22:40;100388.91;;;22.72;28.69
70217;BME280;57608;0.000;0.000;2022-10-16T02:25:29;100388.81;;;22.73;28.64
70217;BME280;57608;0.000;0.000;2022-10-16T02:30:45;100397.66;;;22.74;28.80
70217;BME280;57608;0.000;0.000;2022-10-16T02:33:14;100394.84;;;22.75;28.59
70217;BME280;57608;0.000;0.000;2022-10-16T02:35:41;100393.41;;;22.71;28.65
70217;BME280;57608;0.000;0.000;2022-10-16T02:38:09;100397.06;;;22.70;28.68
70217;BME280;57608;0.000;0.000;2022-10-16T02:40:36;100399.03;;;22.68;28.58
70217;BME280;57608;0.000;0.000;2022-10-16T02:43:03;100396.13;;;22.60;28.50
70217;BME280;57608;0.000;0.000;2022-10-16T02:45:29;100393.25;;;22.52;28.69
70217;BME280;57608;0.000;0.000;2022-10-16T02:47:55;100405.28;;;22.46;28.64
70217;BME280;57608;0.000;0.000;2022-10-16T02:50:20;100396.91;;;22.39;28.67
70217;BME280;57608;0.000;0.000;2022-10-16T02:52:46;100396.66;;;22.31;28.79
70217;BME280;57608;0.000;0.000;2022-10-16T02:55:11;100398.88;;;22.26;28.89
70217;BME280;57608;0.000;0.000;2022-10-16T02:57:37;100402.75;;;22.22;29.06
70217;BME280;57608;0.000;0.000;2022-10-16T03:00:04;100403.03;;;22.19;29.07
70217;BME280;57608;0.000;0.000;2022-10-16T03:02:30;100402.16;;;22.18;29.28
70217;BME280;57608;0.000;0.000;2022-10-16T03:04:55;100403.84;;;22.19;29.25
70217;BME280;57608;0.000;0.000;2022-10-16T03:07:21;100400.22;;;22.20;29.28
70217;BME280;57608;0.000;0.000;2022-10-16T03:09:46;100402.16;;;22.18;29.13
70217;BME280;57608;0.000;0.000;2022-10-16T03:12:12;100411.25;;;22.16;29.34
70217;BME280;57608;0.000;0.000;2022-10-16T03:14:37;100412.47;;;22.11;29.33
70217;BME280;57608;0.000;0.000;2022-10-16T03:17:05;100413.84;;;22.06;29.44
70217;BME280;57608;0.000;0.000;2022-10-16T03:19:30;100408.84;;;22.01;29.48
70217;BME280;57608;0.000;0.000;2022-10-16T03:21:55;100414.31;;;22.00;29.55
70217;BME280;57608;0.000;0.000;2022-10-16T03:24:21;100411.78;;;21.98;29.65
70217;BME280;57608;0.000;0.000;2022-10-16T03:26:46;100415.03;;;22.02;29.54
70217;BME280;57608;0.000;0.000;2022-10-16T03:29:12;100418.31;;;22.05;29.61
70217;BME280;57608;0.000;0.000;2022-10-16T03:31:37;100424.13;;;22.10;29.56
70217;BME280;57608;0.000;0.000;2022-10-16T03:34:03;100420.22;;;22.15;29.50
70217;BME280;57608;0.000;0.000;2022-10-16T03:36:28;100420.72;;;22.20;29.41
70217;BME280;57608;0.000;0.000;2022-10-16T03:38:54;100421.19;;;22.25;29.40
70217;BME280;57608;0.000;0.000;2022-10-16T03:41:19;100428.00;;;22.29;29.16
70217;BME280;57608;0.000;0.000;2022-10-16T03:43:44;100431.13;;;22.34;29.21
70217;BME280;57608;0.000;0.000;2022-10-16T03:46:10;100427.38;;;22.37;29.06
70217;BME280;57608;0.000;0.000;2022-10-16T03:48:35;100427.97;;;22.40;29.06
70217;BME280;57608;0.000;0.000;2022-10-16T03:51:01;100426.06;;;22.42;28.91
70217;BME280;57608;0.000;0.000;2022-10-16T03:53:26;100426.66;;;22.46;29.04
70217;BME280;57608;0.000;0.000;2022-10-16T03:55:51;100423.00;;;22.47;28.96
70217;BME280;57608;0.000;0.000;2022-10-16T03:58:17;100427.22;;;22.50;28.86
70217;BME280;57608;0.000;0.000;2022-10-16T04:00:43;100426.25;;;22.51;28.65
70217;BME280;57608;0.000;0.000;2022-10-16T04:03:09;100426.13;;;22.52;28.97
70217;BME280;57608;0.000;0.000;2022-10-16T04:05:35;100428.94;;;22.51;28.93
70217;BME280;57608;0.000;0.000;2022-10-16T04:08:00;100430.03;;;22.48;28.88
70217;BME280;57608;0.000;0.000;2022-10-16T04:10:26;100419.28;;;22.38;28.91
70217;BME280;57608;0.000;0.000;2022-10-16T04:12:51;100426.53;;;22.36;28.85
70217;BME280;57608;0.000;0.000;2022-10-16T04:15:19;100425.19;;;22.31;29.11
70217;BME280;57608;0.000;0.000;2022-10-16T04:17:45;100431.88;;;22.25;29.01
70217;BME280;57608;0.000;0.000;2022-10-16T04:20:10;100431.50;;;22.18;29.28
70217;BME280;57608;0.000;0.000;2022-10-16T04:22:36;100431.91;;;22.14;29.12
70217;BME280;57608;0.000;0.000;2022-10-16T04:25:01;100424.38;;;22.07;29.29
70217;BME280;57608;0.000;0.000;2022-10-16T04:27:27;100429.94;;;22.04;29.32
70217;BME280;57608;0.000;0.000;2022-10-16T04:29:53;100433.47;;;22.05;29.35
70217;BME280;57608;0.000;0.000;2022-10-16T04:32:19;100429.94;;;22.04;29.27
70217;BME280;57608;0.000;0.000;2022-10-16T04:34:44;100437.72;;;22.07;29.41
70217;BME280;57608;0.000;0.000;2022-10-16T04:37:09;100440.25;;;22.09;29.31
70217;BME280;57608;0.000;0.000;2022-10-16T04:39:35;100438.56;;;22.08;29.44
70217;BME280;57608;0.000;0.000;2022-10-16T04:42:00;100448.41;;;22.07;29.26
70217;BME280;57608;0.000;0.000;2022-10-16T04:44:26;100453.97;;;22.04;29.40
70217;BME280;57608;0.000;0.000;2022-10-16T04:46:51;100438.47;;;21.98;29.34
70217;BME280;57608;0.000;0.000;2022-10-16T04:49:17;100449.34;;;21.95;29.37
70217;BME280;57608;0.000;0.000;2022-10-16T04:51:42;100442.56;;;21.91;29.49
70217;BME280;57608;0.000;0.000;2022-10-16T04:54:09;100442.56;;;21.91;29.69
70217;BME280;57608;0.000;0.000;2022-10-16T04:56:34;100446.94;;;21.92;29.43
70217;BME280;57608;0.000;0.000;2022-10-16T04:59:05;100453.84;;;21.94;29.53
70217;BME280;57608;0.000;0.000;2022-10-16T05:01:31;100449.97;;;21.99;29.38
70217;BME280;57608;0.000;0.000;2022-10-16T05:03:56;100446.94;;;22.03;29.35
70217;BME280;57608;0.000;0.000;2022-10-16T05:06:21;100455.44;;;22.08;29.42
70217;BME280;57608;0.000;0.000;2022-10-16T05:08:47;100455.06;;;22.13;29.30
70217;BME280;57608;0.000;0.000;2022-10-16T05:11:12;100461.75;;;22.19;29.13
70217;BME280;57608;0.000;0.000;2022-10-16T05:13:37;100448.00;;;22.23;29.16
70217;BME280;57608;0.000;0.000;2022-10-16T05:16:03;100448.63;;;22.27;29.11
70217;BME280;57608;0.000;0.000;2022-10-16T05:18:29;100448.22;;;22.32;29.04
70217;BME280;57608;0.000;0.000;2022-10-16T05:20:54;100457.09;;;22.32;28.96
70217;BME280;57608;0.000;0.000;2022-10-16T05:23:19;100459.19;;;22.40;29.08
70217;BME280;57608;0.000;0.000;2022-10-16T05:25:53;100458.78;;;22.44;28.84
70217;BME280;57608;0.000;0.000;2022-10-16T05:28:18;100457.59;;;22.49;28.71
70217;BME280;57608;0.000;0.000;2022-10-16T05:30:44;100458.31;;;22.51;28.74
70217;BME280;57608;0.000;0.000;2022-10-16T05:33:09;100466.09;;;22.54;28.75
70217;BME280;57608;0.000;0.000;2022-10-16T05:35:35;100464.13;;;22.56;28.75
70217;BME280;57608;0.000;0.000;2022-10-16T05:38:00;100464.25;;;22.54;28.55
70217;BME280;57608;0.000;0.000;2022-10-16T05:40:26;100463.50;;;22.52;28.71
70217;BME280;57608;0.000;0.000;2022-10-16T05:42:54;100470.94;;;22.49;28.61
70217;BME280;57608;0.000;0.000;2022-10-16T05:45:22;100468.50;;;22.46;28.74
70217;BME280;57608;0.000;0.000;2022-10-16T05:47:48;100471.44;;;22.42;29.35
70217;BME280;57608;0.000;0.000;2022-10-16T05:50:14;100474.34;;;22.39;29.51
70217;BME280;57608;0.000;0.000;2022-10-16T05:52:39;100470.00;;;22.38;29.55
70217;BME280;57608;0.000;0.000;2022-10-16T05:55:05;100475.44;;;22.37;30.27
70217;BME280;57608;0.000;0.000;2022-10-16T05:57:30;100473.63;;;22.37;29.29
70217;BME280;57608;0.000;0.000;2022-10-16T05:59:56;100477.75;;;22.41;29.40
70217;BME280;57608;0.000;0.000;2022-10-16T06:02:21;100477.25;;;22.48;28.81
70217;BME280;57608;0.000;0.000;2022-10-16T06:04:47;100479.53;;;22.52;28.66
70217;BME280;57608;0.000;0.000;2022-10-16T06:07:12;100482.69;;;22.57;28.53
70217;BME280;57608;0.000;0.000;2022-10-16T06:09:38;100479.66;;;22.62;28.40
70217;BME280;57608;0.000;0.000;2022-10-16T06:12:03;100484.50;;;22.68;28.26
70217;BME280;57608;0.000;0.000;2022-10-16T06:14:29;100483.50;;;22.69;27.98
70217;BME280;57608;0.000;0.000;2022-10-16T06:16:54;100482.53;;;22.70;27.90
70217;BME280;57608;0.000;0.000;2022-10-16T06:19:20;100482.31;;;22.73;28.05
70217;BME280;57608;0.000;0.000;2022-10-16T06:21:45;100483.59;;;22.79;27.79
70217;BME280;57608;0.000;0.000;2022-10-16T06:24:11;100483.81;;;22.87;27.92
70217;BME280;57608;0.000;0.000;2022-10-16T06:26:37;100485.72;;;22.97;27.50
70217;BME280;57608;0.000;0.000;2022-10-16T06:29:03;100483.88;;;23.08;27.13
70217;BME280;57608;0.000;0.000;2022-10-16T06:31:28;100493.56;;;23.21;27.15
70217;BME280;57608;0.000;0.000;2022-10-16T06:33:56;100488.03;;;23.34;26.79
70217;BME280;57608;0.000;0.000;2022-10-16T06:36:22;100492.91;;;23.50;26.64
70217;BME280;57608;0.000;0.000;2022-10-16T06:38:48;100485.56;;;23.63;26.08
70217;BME280;57608;0.000;0.000;2022-10-16T06:41:16;100482.25;;;23.81;25.60
70217;BME280;57608;0.000;0.000;2022-10-16T06:43:42;100491.38;;;23.99;25.83
70217;BME280;57608;0.000;0.000;2022-10-16T06:46:11;100493.59;;;24.15;25.52
70217;BME280;57608;0.000;0.000;2022-10-16T06:48:36;100493.78;;;24.33;25.27
70217;BME280;57608;0.000;0.000;2022-10-16T06:51:08;100491.72;;;24.47;24.71
70217;BME280;57608;0.000;0.000;2022-10-16T06:53:39;100492.28;;;24.60;24.70
70217;BME280;57608;0.000;0.000;2022-10-16T06:56:12;100496.69;;;24.71;25.40
70217;BME280;57608;0.000;0.000;2022-10-16T06:58:38;100492.34;;;24.80;25.42
70217;BME280;57608;0.000;0.000;2022-10-16T07:01:04;100492.78;;;24.85;25.55
70217;BME280;57608;0.000;0.000;2022-10-16T07:03:30;100496.75;;;24.90;25.53
70217;BME280;57608;0.000;0.000;2022-10-16T07:05:56;100501.00;;;24.93;25.52
70217;BME280;57608;0.000;0.000;2022-10-16T07:08:22;100499.28;;;24.92;25.61
70217;BME280;57608;0.000;0.000;2022-10-16T07:10:47;100495.31;;;24.86;25.67
70217;BME280;57608;0.000;0.000;2022-10-16T07:13:13;100495.03;;;24.80;25.69
70217;BME280;57608;0.000;0.000;2022-10-16T07:15:39;100495.03;;;24.70;25.71
70217;BME280;57608;0.000;0.000;2022-10-16T07:18:05;100505.69;;;24.60;25.98
70217;BME280;57608;0.000;0.000;2022-10-16T07:20:34;100504.81;;;24.50;26.03
70217;BME280;57608;0.000;0.000;2022-10-16T07:22:59;100499.44;;;24.40;25.92
70217;BME280;57608;0.000;0.000;2022-10-16T07:25:25;100508.16;;;24.32;26.37
70217;BME280;57608;0.000;0.000;2022-10-16T07:27:52;100498.97;;;24.25;26.30
70217;BME280;57608;0.000;0.000;2022-10-16T07:30:21;100510.94;;;24.21;26.71
70217;BME280;57608;0.000;0.000;2022-10-16T07:32:47;100509.50;;;24.17;26.45
70217;BME280;57608;0.000;0.000;2022-10-16T07:35:12;100505.41;;;24.13;26.53
70217;BME280;57608;0.000;0.000;2022-10-16T07:37:38;100499.63;;;24.07;26.64
70217;BME280;57608;0.000;0.000;2022-10-16T07:40:04;100508.91;;;24.03;26.59
70217;BME280;57608;0.000;0.000;2022-10-16T07:42:29;100507.00;;;23.94;26.62
70217;BME280;57608;0.000;0.000;2022-10-16T07:44:55;100505.81;;;23.87;26.80
70217;BME280;57608;0.000;0.000;2022-10-16T07:47:20;100509.03;;;23.81;26.74
70217;BME280;57608;0.000;0.000;2022-10-16T07:49:45;100503.94;;;23.78;26.85
70217;BME280;57608;0.000;0.000;2022-10-16T07:52:11;100510.28;;;23.76;26.99
70217;BME280;57608;0.000;0.000;2022-10-16T07:54:36;100501.25;;;23.78;26.87
70217;BME280;57608;0.000;0.000;2022-10-16T07:57:02;100508.28;;;23.79;26.90
70217;BME280;57608;0.000;0.000;2022-10-16T07:59:27;100510.00;;;23.80;26.83
70217;BME280;57608;0.000;0.000;2022-10-16T08:01:53;100508.88;;;23.82;26.91
70217;BME280;57608;0.000;0.000;2022-10-16T08:04:18;100514.09;;;23.84;26.92
70217;BME280;57608;0.000;0.000;2022-10-16T08:06:43;100510.59;;;23.83;26.87
70217;BME280;57608;0.000;0.000;2022-10-16T08:09:09;100507.63;;;23.86;26.67
70217;BME280;57608;0.000;0.000;2022-10-16T08:11:34;100519.19;;;23.87;26.91
70217;BME280;57608;0.000;0.000;2022-10-16T08:14:00;100510.19;;;23.88;28.69
70217;BME280;57608;0.000;0.000;2022-10-16T08:16:26;100507.28;;;23.91;27.16
70217;BME280;57608;0.000;0.000;2022-10-16T08:18:51;100507.38;;;23.89;26.68
70217;BME280;57608;0.000;0.000;2022-10-16T08:21:19;100506.31;;;23.92;26.89
70217;BME280;57608;0.000;0.000;2022-10-16T08:23:45;100513.34;;;23.93;26.91
70217;BME280;57608;0.000;0.000;2022-10-16T08:26:12;100511.38;;;23.95;26.59
70217;BME280;57608;0.000;0.000;2022-10-16T08:28:38;100508.56;;;23.97;26.58
70217;BME280;57608;0.000;0.000;2022-10-16T08:31:09;100506.03;;;23.95;26.58
70217;BME280;57608;0.000;0.000;2022-10-16T08:33:35;100513.91;;;23.97;26.74
70217;BME280;57608;0.000;0.000;2022-10-16T08:36:01;100502.66;;;23.93;26.66
70217;BME280;57608;0.000;0.000;2022-10-16T08:38:27;100494.38;;;23.85;26.71
70217;BME280;57608;0.000;0.000;2022-10-16T08:41:00;100507.06;;;23.83;26.81
70217;BME280;57608;0.000;0.000;2022-10-16T08:43:35;100505.75;;;23.77;26.77
70217;BME280;57608;0.000;0.000;2022-10-16T08:46:25;100500.09;;;23.70;26.68
70217;BME280;57608;0.000;0.000;2022-10-16T08:49:00;100508.63;;;23.64;26.59
70217;BME280;57608;0.000;0.000;2022-10-16T08:51:33;100500.16;;;23.59;26.45
70217;BME280;57608;0.000;0.000;2022-10-16T08:54:05;100505.91;;;23.54;26.68
70217;BME280;57608;0.000;0.000;2022-10-16T08:56:31;100508.72;;;23.53;26.59
70217;BME280;57608;0.000;0.000;2022-10-16T08:58:59;100507.03;;;23.52;26.45
70217;BME280;57608;0.000;0.000;2022-10-16T09:01:36;100505.03;;;23.54;26.83
70217;BME280;57608;0.000;0.000;2022-10-16T09:15:32;100498.53;;;23.47;26.49
70217;BME280;57608;0.000;0.000;2022-10-16T09:18:05;100500.63;;;23.43;26.66
70217;BME280;57608;0.000;0.000;2022-10-16T09:20:40;100502.31;;;23.44;26.74
70217;BME280;57608;0.000;0.000;2022-10-16T09:23:14;100494.16;;;23.46;26.65
70217;BME280;57608;0.000;0.000;2022-10-16T09:25:43;100491.22;;;23.49;26.59
70217;BME280;57608;0.000;0.000;2022-10-16T09:28:09;100504.94;;;23.55;26.45
70217;BME280;57608;0.000;0.000;2022-10-16T09:30:36;100484.25;;;23.57;26.59
70217;BME280;57608;0.000;0.000;2022-10-16T09:33:02;100492.84;;;23.61;26.49
70217;BME280;57608;0.000;0.000;2022-10-16T09:35:50;100497.94;;;23.64;26.38
70217;BME280;57608;0.000;0.000;2022-10-16T09:38:35;100494.03;;;23.68;26.48
70217;BME280;57608;0.000;0.000;2022-10-16T09:41:19;100482.31;;;23.69;26.54
70217;BME280;57608;0.000;0.000;2022-10-16T09:46:30;100492.78;;;23.72;26.55
70217;BME280;57608;0.000;0.000;2022-10-16T09:48:59;100490.81;;;23.74;26.53
70217;BME280;57608;0.000;0.000;2022-10-16T09:51:35;100495.19;;;23.75;26.44
70217;BME280;57608;0.000;0.000;2022-10-16T09:54:13;100490.69;;;23.76;26.45
70217;BME280;57608;0.000;0.000;2022-10-16T09:56:39;100487.03;;;23.77;26.37
70217;BME280;57608;0.000;0.000;2022-10-16T09:59:19;100487.16;;;23.75;26.46
70217;BME280;57608;0.000;0.000;2022-10-16T10:01:50;100481.94;;;23.74;26.45
70217;BME280;57608;0.000;0.000;2022-10-16T10:04:17;100480.53;;;23.70;26.61
70217;BME280;57608;0.000;0.000;2022-10-16T10:06:52;100475.69;;;23.64;26.58
70217;BME280;57608;0.000;0.000;2022-10-16T10:12:01;100469.81;;;23.49;26.72
70217;BME280;57608;0.000;0.000;2022-10-16T10:14:48;100465.97;;;23.41;26.85
70217;BME280;57608;0.000;0.000;2022-10-16T10:20:00;100476.28;;;23.25;26.88
70217;BME280;57608;0.000;0.000;2022-10-16T10:40:55;100469.78;;;23.06;27.04
70217;BME280;57608;0.000;0.000;2022-10-16T10:46:35;100472.50;;;22.95;27.78
70217;BME280;57608;0.000;0.000;2022-10-16T10:52:00;100461.34;;;22.90;27.63
70217;BME280;57608;0.000;0.000;2022-10-16T11:03:35;100459.56;;;23.12;26.89
70217;BME280;57608;0.000;0.000;2022-10-16T11:05:49;100454.69;;;23.17;26.80
70217;BME280;57608;0.000;0.000;2022-10-16T11:08:32;100456.00;;;23.22;26.72
70217;BME280;57608;0.000;0.000;2022-10-16T11:11:49;100454.66;;;23.28;26.69
70217;BME280;57608;0.000;0.000;2022-10-16T11:17:12;100450.47;;;23.35;26.61
70217;BME280;57608;0.000;0.000;2022-10-16T11:22:32;100450.66;;;23.43;26.71
70217;BME280;57608;0.000;0.000;2022-10-16T11:25:02;100446.88;;;23.46;26.75
70217;BME280;57608;0.000;0.000;2022-10-16T11:27:51;100445.03;;;23.47;26.83
70217;BME280;57608;0.000;0.000;2022-10-16T11:30:26;100445.75;;;23.49;26.87
70217;BME280;57608;0.000;0.000;2022-10-16T11:38:30;100441.78;;;23.43;26.57
70217;BME280;57608;0.000;0.000;2022-10-16T11:40:58;100447.66;;;23.37;26.91
70217;BME280;57608;0.000;0.000;2022-10-16T11:43:29;100436.63;;;23.30;26.86
70217;BME280;57608;0.000;0.000;2022-10-16T11:46:03;100439.81;;;23.24;26.80
70217;BME280;57608;0.000;0.000;2022-10-16T11:48:38;100432.34;;;23.18;27.10
70217;BME280;57608;0.000;0.000;2022-10-16T11:56:29;100433.59;;;23.02;27.17
70217;BME280;57608;0.000;0.000;2022-10-16T11:59:01;100430.34;;;22.99;27.33
70217;BME280;57608;0.000;0.000;2022-10-16T12:01:41;100449.50;;;23.04;27.22
70217;BME280;57608;0.000;0.000;2022-10-16T12:04:33;100429.97;;;23.03;27.44
70217;BME280;57608;0.000;0.000;2022-10-16T12:07:06;100435.88;;;23.07;27.55
70217;BME280;57608;0.000;0.000;2022-10-16T12:09:36;100436.75;;;23.07;27.93
70217;BME280;57608;0.000;0.000;2022-10-16T12:12:02;100445.72;;;23.06;27.52
70217;BME280;57608;0.000;0.000;2022-10-16T12:17:39;100446.09;;;23.02;27.63
70217;BME280;57608;0.000;0.000;2022-10-16T12:20:00;100436.66;;;22.98;27.88
70217;BME280;57608;0.000;0.000;2022-10-16T12:22:27;100431.31;;;22.98;27.79
70217;BME280;57608;0.000;0.000;2022-10-16T12:24:54;100427.53;;;23.00;28.02
70217;BME280;57608;0.000;0.000;2022-10-16T12:27:39;100423.63;;;23.04;28.00
70217;BME280;57608;0.000;0.000;2022-10-16T12:30:06;100412.53;;;23.09;27.89
70217;BME280;57608;0.000;0.000;2022-10-16T12:32:33;100403.19;;;23.15;27.79
70217;BME280;57608;0.000;0.000;2022-10-16T12:35:00;100415.31;;;23.19;27.94
70217;BME280;57608;0.000;0.000;2022-10-16T12:37:33;100408.59;;;23.24;27.82
70217;BME280;57608;0.000;0.000;2022-10-16T12:39:59;100411.88;;;23.28;27.45
70217;BME280;57608;0.000;0.000;2022-10-16T12:42:36;100414.13;;;23.33;27.30
70217;BME280;57608;0.000;0.000;2022-10-16T12:45:22;100418.38;;;23.35;27.30
70217;BME280;57608;0.000;0.000;2022-10-16T12:47:52;100412.78;;;23.38;26.92
70217;BME280;57608;0.000;0.000;2022-10-16T12:50:37;100417.84;;;23.41;27.17
70217;BME280;57608;0.000;0.000;2022-10-16T12:53:24;100411.53;;;23.42;27.19
70217;BME280;57608;0.000;0.000;2022-10-16T12:56:12;100413.09;;;23.45;27.14
70217;BME280;57608;0.000;0.000;2022-10-16T13:09:37;100409.50;;;23.35;26.84
70217;BME280;57608;0.000;0.000;2022-10-16T13:28:08;100413.50;;;22.87;27.36
70217;BME280;57608;0.000;0.000;2022-10-16T13:30:40;100410.97;;;22.85;27.46
70217;BME280;57608;0.000;0.000;2022-10-16T13:33:13;100413.50;;;22.87;27.41
70217;BME280;57608;0.000;0.000;2022-10-16T13:35:53;100416.03;;;22.88;27.57
70217;BME280;57608;0.000;0.000;2022-10-16T13:38:24;100419.56;;;22.89;27.54
70217;BME280;57608;0.000;0.000;2022-10-16T13:41:03;100411.66;;;22.87;27.53
70217;BME280;57608;0.000;0.000;2022-10-16T13:43:40;100413.78;;;22.84;27.51
70217;BME280;57608;0.000;0.000;2022-10-16T13:46:17;100421.31;;;22.79;27.61
70217;BME280;57608;0.000;0.000;2022-10-16T13:48:44;100420.72;;;22.75;27.80
70217;BME280;57608;0.000;0.000;2022-10-16T13:53:36;100416.84;;;22.68;27.62
70217;BME280;57608;0.000;0.000;2022-10-16T13:56:04;100415.28;;;22.65;27.82
70217;BME280;57608;0.000;0.000;2022-10-16T13:58:30;100411.38;;;22.69;27.94
70217;BME280;57608;0.000;0.000;2022-10-16T14:01:01;100409.19;;;22.74;27.89
70217;BME280;57608;0.000;0.000;2022-10-16T14:03:28;100407.84;;;22.80;27.83
70217;BME280;57608;0.000;0.000;2022-10-16T14:05:57;100413.78;;;22.84;27.77
70217;BME280;57608;0.000;0.000;2022-10-16T14:08:24;100415.06;;;22.89;27.58
70217;BME280;57608;0.000;0.000;2022-10-16T14:11:00;100408.50;;;22.93;27.56
70217;BME280;57608;0.000;0.000;2022-10-16T14:15:56;100398.84;;;23.02;27.61
70217;BME280;57608;0.000;0.000;2022-10-16T14:18:26;100414.50;;;23.07;27.51
70217;BME280;57608;0.000;0.000;2022-10-16T14:20:52;100415.09;;;23.10;27.37
70217;BME280;57608;0.000;0.000;2022-10-16T14:23:37;100414.84;;;23.14;27.52
70217;BME280;57608;0.000;0.000;2022-10-16T14:28:36;100409.97;;;23.19;27.35
70217;BME280;57608;0.000;0.000;2022-10-16T14:31:36;100409.84;;;23.20;27.34
70217;BME280;57608;0.000;0.000;2022-10-16T14:34:02;100408.00;;;23.21;27.48
70217;BME280;57608;0.000;0.000;2022-10-16T14:36:28;100408.16;;;23.19;27.46
70217;BME280;57608;0.000;0.000;2022-10-16T14:39:06;100413.78;;;23.16;27.31
70217;BME280;57608;0.000;0.000;2022-10-16T14:41:48;100408.03;;;23.09;27.47
70217;BME280;57608;0.000;0.000;2022-10-16T14:44:14;100412.09;;;23.04;27.44
70217;BME280;57608;0.000;0.000;2022-10-16T14:46:43;100419.78;;;22.97;27.62
70217;BME280;57608;0.000;0.000;2022-10-16T14:51:35;100421.78;;;22.84;27.66
70217;BME280;57608;0.000;0.000;2022-10-16T14:54:01;100419.50;;;22.79;27.95
70217;BME280;57608;0.000;0.000;2022-10-16T14:56:34;100422.53;;;22.74;27.82
70217;BME280;57608;0.000;0.000;2022-10-16T14:59:12;100420.13;;;22.71;27.93
70217;BME280;57608;0.000;0.000;2022-10-16T15:01:39;100421.97;;;22.71;28.04
70217;BME280;57608;0.000;0.000;2022-10-16T15:04:08;100420.00;;;22.73;27.85
70217;BME280;57608;0.000;0.000;2022-10-16T15:06:34;100425.19;;;22.74;28.00
70217;BME280;57608;0.000;0.000;2022-10-16T15:08:59;100425.19;;;22.74;27.89
70217;BME280;57608;0.000;0.000;2022-10-16T15:11:25;100423.53;;;22.73;27.99
70217;BME280;57608;0.000;0.000;2022-10-16T15:13:50;100424.63;;;22.71;27.90